Time;durP1;ratioP1;P1;durP2;ratioP2;P2;SDS_P1;SDS_P2;PMS_P1;PMS_P2;Temp;Humidity;BMP_temperature;BMP_pressure;BME280_temperature;BME280_humidity;BME280_pressure;Samples;Min_cycle;Max_cycle;Signal;HPM_P1;HPM_P2
2022/06/13 00:01:10;;;;;;;5.97;2.70;;;;;;;19.27;61.41;96249.00;5049862;28;20049;-76
2022/06/13 00:03:38;;;;;;;3.83;2.38;;;;;;;19.27;61.08;96243.47;5050497;28;20061;-78
2022/06/13 00:06:05;;;;;;;4.03;2.75;;;;;;;19.30;62.14;96240.72;5049911;28;20045;-76
2022/06/13 00:08:32;;;;;;;3.08;2.30;;;;;;;19.30;61.97;96249.00;5048750;28;20083;-76
2022/06/13 00:10:58;;;;;;;6.40;2.50;;;;;;;19.32;61.33;96248.66;5049932;28;20544;-76
2022/06/13 00:13:25;;;;;;;5.05;2.83;;;;;;;19.27;60.79;96252.56;5049234;28;20709;-78
2022/06/13 00:15:51;;;;;;;5.18;2.80;;;;;;;19.23;60.74;96256.44;5050173;28;20045;-77
2022/06/13 00:18:18;;;;;;;5.50;2.80;;;;;;;19.19;61.73;96241.78;5049458;28;20044;-78
2022/06/13 00:20:45;;;;;;;4.82;2.92;;;;;;;19.23;64.27;96234.34;5049992;28;20054;-78
2022/06/13 00:23:12;;;;;;;3.35;2.78;;;;;;;19.22;64.89;96238.28;5049539;28;20079;-77
2022/06/13 00:25:40;;;;;;;3.65;2.63;;;;;;;19.15;66.04;96241.75;5049979;28;20055;-79
2022/06/13 00:28:07;;;;;;;3.85;3.00;;;;;;;19.11;68.06;96253.94;5049237;28;20554;-77
2022/06/13 00:30:33;;;;;;;4.05;2.97;;;;;;;19.00;68.82;96271.16;5050090;28;20056;-77
2022/06/13 00:33:00;;;;;;;6.55;2.80;;;;;;;18.92;69.67;96291.53;5049932;28;20041;-77
2022/06/13 00:35:26;;;;;;;4.20;3.00;;;;;;;18.97;70.42;96316.03;5049546;28;20052;-76
2022/06/13 00:37:54;;;;;;;7.88;3.70;;;;;;;18.94;70.36;96344.38;5049629;28;20053;-77
2022/06/13 00:40:22;;;;;;;4.63;4.10;;;;;;;18.60;72.62;96428.13;5048431;28;20049;-77
2022/06/13 00:42:49;;;;;;;6.75;3.58;;;;;;;18.07;72.69;96439.00;5049805;28;20083;-77
2022/06/13 00:45:19;;;;;;;6.50;3.85;;;;;;;17.79;75.89;96401.44;5049490;28;20056;-78
2022/06/13 00:47:48;;;;;;;9.30;4.35;;;;;;;17.59;79.31;96430.13;5049852;28;20044;-78
2022/06/13 00:50:20;;;;;;;7.03;4.57;;;;;;;17.32;81.50;96437.41;5049338;28;20048;-76
2022/06/13 00:52:52;;;;;;;9.20;4.63;;;;;;;17.12;84.85;96431.06;5049846;28;20053;-75
2022/06/13 00:55:25;;;;;;;8.25;5.07;;;;;;;16.89;87.92;96423.47;5049365;28;20041;-77
2022/06/13 00:57:51;;;;;;;7.28;4.90;;;;;;;16.90;88.22;96414.06;5049873;28;20049;-77
2022/06/13 01:00:19;;;;;;;8.20;5.07;;;;;;;16.93;88.70;96407.06;5049426;28;20068;-75
2022/06/13 01:02:49;;;;;;;7.70;4.30;;;;;;;17.09;88.84;96396.03;5049880;28;20075;-74
2022/06/13 01:05:21;;;;;;;9.63;5.25;;;;;;;17.10;89.80;96394.84;5049418;28;20049;-76
2022/06/13 01:07:49;;;;;;;6.47;5.40;;;;;;;17.08;91.13;96397.97;5049559;28;20676;-74
2022/06/13 01:13:02;;;;;;;7.90;6.10;;;;;;;16.89;93.30;96390.47;5049970;28;20419;-75
2022/06/13 01:15:50;;;;;;;7.43;6.13;;;;;;;16.80;94.50;96389.84;5049357;28;20495;-75
2022/06/13 01:18:31;;;;;;;7.90;5.20;;;;;;;16.88;94.26;96391.63;5049259;28;20495;-76
2022/06/13 01:21:11;;;;;;;6.45;5.47;;;;;;;16.91;93.79;96379.91;5049619;28;20049;-77
2022/06/13 01:24:23;;;;;;;6.60;5.43;;;;;;;17.00;94.04;96370.66;5049297;28;20040;-76
2022/06/13 01:27:19;;;;;;;10.07;6.25;;;;;;;16.89;94.38;96365.72;5004550;28;20045;-78
2022/06/13 01:29:57;;;;;;;10.27;6.32;;;;;;;16.86;96.11;96355.44;5053046;28;20041;-74
2022/06/13 01:32:59;;;;;;;7.97;6.22;;;;;;;16.91;96.23;96357.09;5052708;28;20037;-76
2022/06/13 01:35:39;;;;;;;12.20;6.82;;;;;;;16.78;96.86;96352.88;5052644;28;20052;-77
2022/06/13 01:38:17;;;;;;;7.50;5.70;;;;;;;16.81;97.30;96371.41;5052610;28;20060;-77
2022/06/13 01:40:57;;;;;;;9.95;6.80;;;;;;;16.64;97.66;96383.53;5013439;28;20688;-76
2022/06/13 01:43:31;;;;;;;10.05;6.90;;;;;;;16.56;98.38;96399.09;5012863;28;20420;-76
2022/06/13 01:46:06;;;;;;;9.60;7.38;;;;;;;16.51;99.51;96395.81;5013372;28;20046;-74
2022/06/13 01:48:43;;;;;;;12.38;7.90;;;;;;;16.39;99.54;96397.50;5013286;28;20041;-76
2022/06/13 01:51:16;;;;;;;13.13;7.28;;;;;;;16.34;99.82;96417.00;5012695;28;20057;-74
2022/06/13 01:53:53;;;;;;;11.38;8.38;;;;;;;16.21;100.00;96429.19;5013266;28;20529;-74
2022/06/13 01:56:27;;;;;;;13.27;8.93;;;;;;;16.04;100.00;96418.56;5012642;28;20061;-75
2022/06/13 01:59:00;;;;;;;13.00;9.45;;;;;;;15.93;100.00;96395.50;5013082;28;20053;-75
2022/06/13 02:01:35;;;;;;;13.32;10.15;;;;;;;15.76;100.00;96386.41;5012640;28;20041;-74
2022/06/13 02:04:08;;;;;;;17.30;11.90;;;;;;;15.69;100.00;96364.25;5012722;28;20049;-74
2022/06/13 02:06:38;;;;;;;17.48;11.73;;;;;;;15.74;100.00;96333.81;5014380;28;20068;-75
2022/06/13 02:09:08;;;;;;;16.20;12.30;;;;;;;15.79;100.00;96325.31;5031964;28;20049;-76
2022/06/13 02:11:42;;;;;;;17.00;12.27;;;;;;;15.83;100.00;96355.63;5031947;28;20604;-76
2022/06/13 02:14:12;;;;;;;19.02;11.55;;;;;;;15.74;100.00;96380.47;5028229;28;20046;-75
2022/06/13 02:16:48;;;;;;;16.90;9.18;;;;;;;15.75;100.00;96395.78;5032312;28;20049;-75
2022/06/13 02:19:21;;;;;;;10.10;6.57;;;;;;;15.43;100.00;96411.31;5032007;28;20479;-75
2022/06/13 02:21:51;;;;;;;13.30;7.53;;;;;;;15.39;100.00;96400.22;5032380;28;20496;-75
2022/06/13 02:24:20;;;;;;;12.32;8.63;;;;;;;15.44;100.00;96417.59;5031818;28;20045;-75
2022/06/13 02:26:52;;;;;;;12.25;9.32;;;;;;;15.48;100.00;96408.34;5032212;28;20050;-76
2022/06/13 02:29:22;;;;;;;14.80;11.18;;;;;;;15.54;100.00;96406.13;5031780;28;20549;-77
2022/06/13 02:31:55;;;;;;;14.90;12.00;;;;;;;15.68;100.00;96392.06;5032025;28;20052;-77
2022/06/13 02:34:27;;;;;;;15.57;13.48;;;;;;;15.75;100.00;96406.78;5031681;28;20053;-76
2022/06/13 02:37:00;;;;;;;17.88;13.10;;;;;;;15.86;100.00;96380.41;5031699;28;20046;-76
2022/06/13 02:39:34;;;;;;;12.82;10.43;;;;;;;15.89;100.00;96367.94;5031770;28;20048;-76
2022/06/13 02:42:04;;;;;;;11.27;10.00;;;;;;;15.93;100.00;96357.06;5031898;28;20052;-76
2022/06/13 02:44:36;;;;;;;13.65;9.65;;;;;;;15.93;100.00;96357.06;5035820;28;20041;-76
2022/06/13 02:47:09;;;;;;;10.68;9.57;;;;;;;15.82;100.00;96351.28;5031427;28;20451;-76
2022/06/13 02:49:41;;;;;;;12.90;9.48;;;;;;;15.79;100.00;96352.75;5031702;28;20038;-76
2022/06/13 02:52:16;;;;;;;11.07;8.73;;;;;;;15.69;100.00;96347.78;5031425;28;20046;-76
2022/06/13 02:54:52;;;;;;;9.60;7.30;;;;;;;15.54;100.00;96335.59;5032024;28;20049;-76
2022/06/13 02:57:37;;;;;;;8.50;7.40;;;;;;;15.52;100.00;96332.41;5031193;28;20589;-76
2022/06/13 03:00:21;;;;;;;7.00;4.78;;;;;;;15.38;100.00;96332.78;5031185;28;20049;-77
2022/06/13 03:02:56;;;;;;;7.68;4.85;;;;;;;15.37;100.00;96336.69;5031712;28;20076;-76
2022/06/13 03:05:39;;;;;;;5.72;4.75;;;;;;;15.47;100.00;96329.13;5031256;28;20072;-76
2022/06/13 03:08:17;;;;;;;5.10;3.95;;;;;;;15.61;100.00;96335.00;5031029;28;20053;-76
2022/06/13 03:10:50;;;;;;;6.18;4.53;;;;;;;15.61;100.00;96351.47;5031546;28;20436;-75
2022/06/13 03:13:24;;;;;;;5.32;4.53;;;;;;;15.63;100.00;96349.19;5033503;28;20042;-76
2022/06/13 03:15:56;;;;;;;5.25;4.05;;;;;;;15.74;100.00;96333.00;5031486;28;20091;-76
2022/06/13 03:18:28;;;;;;;6.18;4.40;;;;;;;15.79;100.00;96340.97;5030720;28;20060;-75
2022/06/13 03:21:05;;;;;;;7.22;4.82;;;;;;;15.82;100.00;96341.09;5031280;28;20049;-74
2022/06/13 03:23:38;;;;;;;8.63;4.55;;;;;;;15.71;100.00;96345.47;5031171;28;20041;-73
2022/06/13 03:26:10;;;;;;;6.47;3.78;;;;;;;15.67;100.00;96347.34;5030650;28;20053;-73
2022/06/13 03:28:44;;;;;;;5.07;4.07;;;;;;;15.70;100.00;96360.34;5030971;28;20412;-73
2022/06/13 03:31:17;;;;;;;6.47;4.10;;;;;;;15.64;100.00;96353.53;5030535;28;20045;-75
2022/06/13 03:33:47;;;;;;;6.05;3.95;;;;;;;15.62;100.00;96353.84;5031213;28;20049;-76
2022/06/13 03:36:20;;;;;;;6.88;3.92;;;;;;;15.61;100.00;96348.72;5030755;28;20046;-73
2022/06/13 03:38:51;;;;;;;5.28;3.92;;;;;;;15.53;100.00;96334.00;5030950;28;20045;-74
2022/06/13 03:41:22;;;;;;;3.95;3.50;;;;;;;15.59;100.00;96335.31;5030525;28;20064;-75
2022/06/13 03:43:55;;;;;;;3.97;3.47;;;;;;;15.73;100.00;96334.97;5033187;28;20056;-74
2022/06/13 03:46:24;;;;;;;;;;;;;;;15.77;100.00;96351.53;5031037;28;20073;-75
2022/06/13 03:48:56;;;;;;;4.80;3.70;;;;;;;15.74;100.00;96346.72;5030072;28;19921;-75
2022/06/13 03:51:29;;;;;;;7.47;4.13;;;;;;;15.67;100.00;96333.63;5030293;28;20046;-75
2022/06/13 03:54:00;;;;;;;7.28;4.00;;;;;;;15.70;100.00;96340.34;5030848;28;20049;-75
2022/06/13 03:56:31;;;;;;;5.00;3.92;;;;;;;15.69;100.00;96347.78;5030579;28;20046;-75
2022/06/13 03:59:03;;;;;;;7.38;4.65;;;;;;;15.52;100.00;96329.66;5030619;28;20056;-74
2022/06/13 04:01:34;;;;;;;7.22;4.43;;;;;;;15.56;100.00;96316.03;5030303;28;20573;-74
2022/06/13 04:04:02;;;;;;;8.40;3.67;;;;;;;15.62;100.00;96325.59;5030317;28;20053;-74
2022/06/13 04:06:34;;;;;;;5.63;3.50;;;;;;;15.63;100.00;96332.72;5030256;28;20037;-76
2022/06/13 04:09:03;;;;;;;4.00;3.22;;;;;;;15.43;100.00;96339.19;5030151;28;20468;-74
2022/06/13 04:11:40;;;;;;;5.82;3.25;;;;;;;15.32;100.00;96350.66;5030144;28;20048;-74
2022/06/13 04:14:16;;;;;;;4.32;2.92;;;;;;;15.38;100.00;96348.47;5032455;28;20045;-74
2022/06/13 04:16:50;;;;;;;4.18;2.83;;;;;;;15.21;100.00;96360.53;5030505;28;20060;-73
2022/06/13 04:19:35;;;;;;;4.22;2.78;;;;;;;15.38;100.00;96376.69;5029839;28;20045;-74
2022/06/13 04:22:11;;;;;;;3.70;3.08;;;;;;;15.30;100.00;96374.91;5029905;28;20060;-74
2022/06/13 04:24:48;;;;;;;5.00;3.30;;;;;;;15.39;100.00;96364.56;5030314;28;20041;-74
2022/06/13 04:27:22;;;;;;;6.47;4.10;;;;;;;15.37;100.00;96360.59;5029783;28;20124;-74
2022/06/13 04:29:56;;;;;;;5.90;4.07;;;;;;;15.40;100.00;96352.47;5029964;28;20053;-75
2022/06/13 04:32:27;;;;;;;5.65;3.97;;;;;;;15.54;100.00;96348.50;5029628;28;20048;-74
2022/06/13 04:34:54;;;;;;;4.82;3.95;;;;;;;15.65;100.00;96347.69;5030073;28;20049;-75
2022/06/13 04:37:24;;;;;;;6.28;3.65;;;;;;;15.51;100.00;96346.47;5029646;28;20050;-74
2022/06/13 04:39:58;;;;;;;5.63;4.45;;;;;;;15.48;100.00;96347.16;5029765;28;20056;-74
2022/06/13 04:42:29;;;;;;;6.85;4.40;;;;;;;15.47;100.00;96348.31;5029820;28;20103;-75
2022/06/13 04:44:59;;;;;;;5.75;4.35;;;;;;;15.60;100.00;96333.38;5032416;28;20409;-74
2022/06/13 04:47:26;;;;;;;5.38;4.60;;;;;;;15.72;100.00;96329.81;5029646;28;20420;-74
2022/06/13 04:49:57;;;;;;;7.32;4.47;;;;;;;15.82;100.00;96324.63;5029748;28;20041;-74
2022/06/13 04:52:29;;;;;;;7.15;5.38;;;;;;;15.84;100.00;96327.00;5029732;28;20041;-74
2022/06/13 04:55:00;;;;;;;5.82;5.10;;;;;;;15.90;100.00;96326.38;5030147;28;20072;-74
2022/06/13 04:57:28;;;;;;;8.10;5.03;;;;;;;15.89;100.00;96330.28;5029516;28;20049;-78
2022/06/13 04:59:56;;;;;;;5.50;4.45;;;;;;;15.98;100.00;96332.06;5031252;28;20052;-74
2022/06/13 05:02:31;;;;;;;6.18;4.97;;;;;;;15.93;100.00;96340.56;5033535;28;20056;-74
2022/06/13 05:04:58;;;;;;;5.90;4.93;;;;;;;15.91;100.00;96338.94;5033882;28;20045;-77
2022/06/13 05:07:25;;;;;;;6.93;4.90;;;;;;;15.93;100.00;96335.09;5033166;28;20041;-73
2022/06/13 05:09:55;;;;;;;5.78;4.47;;;;;;;15.86;100.00;96333.72;5034053;28;20052;-73
2022/06/13 05:12:26;;;;;;;5.85;4.75;;;;;;;15.91;100.00;96333.47;5033334;28;20057;-77
2022/06/13 05:14:56;;;;;;;6.20;4.82;;;;;;;15.99;100.00;96344.66;5052049;28;20507;-75
2022/06/13 05:17:47;;;;;;;8.07;4.90;;;;;;;15.82;100.00;96335.59;5053014;28;20041;-76
2022/06/13 05:20:19;;;;;;;7.38;5.35;;;;;;;15.83;100.00;96331.69;5050569;28;20052;-73
2022/06/13 05:23:02;;;;;;;6.85;5.65;;;;;;;15.84;100.00;96329.75;5053532;28;20075;-76
2022/06/13 05:25:40;;;;;;;7.93;6.35;;;;;;;15.97;100.00;96331.25;5053077;28;20045;-78
2022/06/13 05:28:07;;;;;;;9.02;6.30;;;;;;;16.09;100.00;96330.41;5052974;28;20052;-77
2022/06/13 05:30:34;;;;;;;8.93;6.18;;;;;;;15.94;100.00;96322.94;5053293;28;20063;-78
2022/06/13 05:33:00;;;;;;;9.07;6.47;;;;;;;16.07;100.00;96318.94;5053296;28;20049;-77
2022/06/13 05:35:30;;;;;;;8.13;6.60;;;;;;;16.10;100.00;96323.75;5052878;28;20103;-76
2022/06/13 05:38:02;;;;;;;7.20;6.32;;;;;;;16.05;100.00;96321.25;5052914;28;20072;-79
2022/06/13 05:40:29;;;;;;;8.70;7.30;;;;;;;16.04;100.00;96325.16;5052912;28;20479;-81
2022/06/13 05:42:55;;;;;;;10.80;7.15;;;;;;;16.15;100.00;96331.72;5052570;28;20053;-80
2022/06/13 05:45:24;;;;;;;8.55;6.63;;;;;;;16.21;100.00;96324.81;5032433;28;20053;-75
2022/06/13 05:47:53;;;;;;;9.88;7.80;;;;;;;16.22;100.00;96326.38;5032712;28;20049;-76
2022/06/13 05:50:23;;;;;;;10.18;8.85;;;;;;;16.28;100.00;96315.94;5032632;28;20042;-76
2022/06/13 05:52:50;;;;;;;10.30;8.88;;;;;;;16.31;100.00;96302.28;5032635;28;20748;-76
2022/06/13 05:55:19;;;;;;;13.18;9.38;;;;;;;16.40;100.00;96308.41;5032436;28;20053;-75
2022/06/13 05:57:46;;;;;;;11.48;8.98;;;;;;;16.48;100.00;96319.56;5032188;28;20560;-76
2022/06/13 06:00:17;;;;;;;13.43;9.35;;;;;;;16.56;100.00;96318.56;5032492;28;20049;-76
2022/06/13 06:02:44;;;;;;;10.90;8.43;;;;;;;16.63;100.00;96307.72;5032560;28;20077;-75
2022/06/13 06:05:11;;;;;;;8.50;7.60;;;;;;;16.61;100.00;96301.81;5032122;28;20049;-76
2022/06/13 06:07:39;;;;;;;8.80;6.90;;;;;;;16.51;100.00;96305.09;5032607;28;20045;-76
2022/06/13 06:10:07;;;;;;;8.80;7.22;;;;;;;16.57;100.00;96306.41;5032256;28;20049;-75
2022/06/13 06:12:34;;;;;;;8.05;5.95;;;;;;;16.59;100.00;96306.84;5031559;28;20045;-76
2022/06/13 06:15:01;;;;;;;10.18;6.38;;;;;;;16.58;100.00;96313.50;5032030;28;20045;-76
2022/06/13 06:17:27;;;;;;;6.32;4.90;;;;;;;16.52;100.00;96323.19;5032214;28;20435;-76
2022/06/13 06:19:54;;;;;;;7.43;5.45;;;;;;;16.62;100.00;96328.13;5032379;28;20504;-76
2022/06/13 06:22:21;;;;;;;11.20;5.82;;;;;;;16.73;100.00;96331.16;5031991;28;20048;-76
2022/06/13 06:24:48;;;;;;;7.40;5.10;;;;;;;16.61;100.00;96330.09;5032336;28;20041;-77
2022/06/13 06:27:16;;;;;;;5.20;4.10;;;;;;;16.55;100.00;96344.44;5031733;28;20504;-76
2022/06/13 06:29:43;;;;;;;5.82;3.50;;;;;;;16.56;100.00;96340.56;5032215;28;20543;-76
2022/06/13 06:32:10;;;;;;;4.43;3.38;;;;;;;16.58;100.00;96354.75;5031833;28;20580;-76
2022/06/13 06:34:37;;;;;;;4.30;2.90;;;;;;;16.63;100.00;96373.72;5032319;28;20053;-76
2022/06/13 06:37:04;;;;;;;6.50;3.25;;;;;;;16.65;100.00;96371.38;5032016;28;20045;-73
2022/06/13 06:39:30;;;;;;;3.85;2.70;;;;;;;16.67;100.00;96374.59;5032034;28;20045;-76
2022/06/13 06:41:57;;;;;;;3.92;2.72;;;;;;;16.67;100.00;96385.59;5031617;28;20049;-78
2022/06/13 06:44:23;;;;;;;6.20;2.58;;;;;;;16.75;100.00;96387.38;5045175;28;20499;-76
2022/06/13 06:46:51;;;;;;;5.65;2.60;;;;;;;16.70;100.00;96382.94;5051972;28;20060;-77
2022/06/13 06:49:18;;;;;;;4.25;2.55;;;;;;;16.64;100.00;96402.78;5050824;28;20041;-77
2022/06/13 06:51:46;;;;;;;4.93;2.67;;;;;;;16.75;100.00;96387.38;5051834;28;20056;-76
2022/06/13 06:59:57;;;;;;;3.78;2.78;;;;;;;16.92;100.00;96398.00;5031358;28;20076;-77
2022/06/13 07:02:27;;;;;;;6.55;2.92;;;;;;;16.88;100.00;96408.13;5031298;28;20054;-77
2022/06/13 07:04:56;;;;;;;4.25;2.65;;;;;;;16.91;100.00;96393.69;5031576;28;20052;-75
2022/06/13 07:07:23;;;;;;;3.95;2.83;;;;;;;17.00;100.00;96403.66;5030755;28;20049;-75
2022/06/13 07:09:49;;;;;;;3.70;2.80;;;;;;;17.05;100.00;96406.13;5031450;28;20053;-75
2022/06/13 07:12:16;;;;;;;4.85;2.92;;;;;;;17.07;100.00;96412.06;5030823;28;20056;-75
2022/06/13 07:14:45;;;;;;;5.25;2.90;;;;;;;17.20;100.00;96419.06;5047204;28;20056;-74
2022/06/13 07:17:13;;;;;;;3.92;2.50;;;;;;;17.31;100.00;96425.59;5050619;28;20052;-75
2022/06/13 07:19:43;;;;;;;4.72;2.75;;;;;;;17.40;100.00;96417.16;5051129;28;20135;-75
2022/06/13 07:22:14;;;;;;;6.88;3.15;;;;;;;17.29;100.00;96410.63;5050686;28;20045;-75
2022/06/13 07:24:40;;;;;;;4.90;3.08;;;;;;;17.33;99.88;96423.31;5050017;28;20042;-76
2022/06/13 07:27:06;;;;;;;4.45;2.90;;;;;;;17.32;100.00;96426.41;5050290;28;20053;-75
2022/06/13 07:29:33;;;;;;;6.55;3.67;;;;;;;17.37;100.00;96426.91;5052421;28;20127;-76
2022/06/13 07:32:06;;;;;;;5.00;3.30;;;;;;;17.42;98.95;96431.34;5054457;28;20057;-75
2022/06/13 07:34:34;;;;;;;6.05;3.58;;;;;;;17.41;99.83;96435.25;5050314;28;20508;-76
2022/06/13 07:37:04;;;;;;;7.75;3.60;;;;;;;17.42;98.87;96437.63;5050863;28;20036;-76
2022/06/13 07:39:31;;;;;;;6.72;3.72;;;;;;;17.45;99.66;96425.91;5050217;28;20037;-80
2022/06/13 07:41:58;;;;;;;6.55;4.10;;;;;;;17.33;100.00;96417.81;5059784;28;20045;-77
2022/06/13 07:44:28;;;;;;;4.90;4.18;;;;;;;17.44;100.00;96410.56;5053304;28;20045;-84
2022/06/13 07:46:55;;;;;;;5.95;4.72;;;;;;;17.61;100.00;96389.25;5038606;28;20053;-85
2022/06/13 07:49:21;;;;;;;6.25;4.10;;;;;;;17.77;98.60;96425.03;5036991;28;20053;-78
2022/06/13 07:51:48;;;;;;;5.82;4.82;;;;;;;17.82;99.50;96419.22;5043537;28;20044;-84
2022/06/13 07:54:17;;;;;;;8.15;4.43;;;;;;;17.97;97.66;96434.88;5042737;28;20068;-85
2022/06/13 07:56:44;;;;;;;6.63;5.30;;;;;;;17.94;98.98;96435.59;5039113;28;20049;-79
2022/06/13 07:59:15;;;;;;;8.25;4.72;;;;;;;18.03;98.71;96438.13;5051006;28;20049;-85
2022/06/13 08:01:41;;;;;;;7.65;4.22;;;;;;;18.20;97.62;96446.72;5046851;28;20051;-83
2022/06/13 08:04:08;;;;;;;6.20;3.90;;;;;;;18.16;94.24;96465.16;5037173;28;20504;-80
2022/06/13 08:06:38;;;;;;;10.13;3.95;;;;;;;18.15;93.47;96465.53;5031364;28;20489;-79
2022/06/13 08:09:06;;;;;;;6.10;3.58;;;;;;;18.22;90.03;96462.91;5033015;28;20049;-82
2022/06/13 08:11:38;;;;;;;11.30;4.13;;;;;;;18.15;90.16;96463.56;5025442;28;20131;-80
2022/06/13 08:14:06;;;;;;;5.17;4.10;;;;;;;18.27;91.92;96465.38;5050439;28;20045;-83
2022/06/13 08:16:34;;;;;;;7.60;3.60;;;;;;;18.47;91.59;96464.16;5055472;28;20044;-81
2022/06/13 08:19:01;;;;;;;5.47;3.85;;;;;;;18.46;87.71;96468.06;5057662;28;20041;-79
2022/06/13 08:21:27;;;;;;;6.45;3.38;;;;;;;18.16;86.19;96475.38;5059714;28;20053;-82
2022/06/13 08:23:54;;;;;;;6.88;3.90;;;;;;;18.07;87.75;96474.81;5051418;28;20064;-79
2022/06/13 08:26:20;;;;;;;7.90;3.55;;;;;;;18.59;86.76;96477.00;5051805;28;20048;-77
2022/06/13 08:28:48;;;;;;;6.70;3.30;;;;;;;18.44;82.91;96475.94;5049863;28;20052;-78
2022/06/13 08:31:20;;;;;;;4.45;2.97;;;;;;;18.51;81.36;96478.81;5049428;28;20045;-78
2022/06/13 08:33:47;;;;;;;7.82;3.25;;;;;;;18.60;80.89;96484.09;5039937;28;20131;-79
2022/06/13 08:36:13;;;;;;;5.90;3.20;;;;;;;18.35;84.44;96478.13;5029248;28;20046;-79
2022/06/13 08:38:40;;;;;;;9.57;3.38;;;;;;;18.14;84.30;96480.47;5035800;28;20054;-81
2022/06/13 08:41:19;;;;;;;11.13;3.25;;;;;;;18.05;81.85;96483.44;5029148;28;20447;-78
2022/06/13 08:44:13;;;;;;;7.53;3.15;;;;;;;17.99;81.68;96482.94;5048621;28;20045;-80
2022/06/13 08:46:48;;;;;;;;;;;;;;;18.04;81.79;96486.56;5056195;28;20052;-80
2022/06/13 08:49:25;;;;;;;5.07;3.33;;;;;;;18.21;81.72;96483.34;5055471;28;19921;-80
2022/06/13 08:52:09;;;;;;;5.63;3.05;;;;;;;18.23;80.13;96483.81;5056120;28;20041;-79
2022/06/13 08:54:37;;;;;;;6.78;3.65;;;;;;;18.76;81.46;96492.28;5056381;28;20041;-78
2022/06/13 08:57:08;;;;;;;9.43;3.17;;;;;;;19.05;80.49;96488.03;5061563;28;20044;-79
2022/06/13 08:59:43;;;;;;;11.93;3.25;;;;;;;19.41;77.55;96489.38;5050024;28;20041;-79
2022/06/13 09:02:15;;;;;;;5.88;2.88;;;;;;;19.24;72.06;96489.91;5029282;28;20408;-80
2022/06/13 09:04:50;;;;;;;9.00;2.78;;;;;;;19.77;74.86;96503.72;5030240;28;20049;-79
2022/06/13 09:07:25;;;;;;;6.28;3.10;;;;;;;20.14;74.18;96494.72;5043208;28;20056;-82
2022/06/13 09:09:58;;;;;;;5.68;3.00;;;;;;;20.41;75.24;96501.78;5031344;28;20048;-79
2022/06/13 09:12:30;;;;;;;6.85;2.95;;;;;;;20.58;69.79;96492.88;5030220;28;20120;-79
2022/06/13 09:15:03;;;;;;;6.63;2.80;;;;;;;20.53;70.02;96501.53;5060183;28;20495;-80
2022/06/13 09:17:38;;;;;;;4.55;2.53;;;;;;;20.90;72.30;96500.69;5062962;28;20041;-82
2022/06/13 09:20:10;;;;;;;4.88;2.45;;;;;;;20.78;69.25;96504.56;5053941;28;20483;-79
2022/06/13 09:22:42;;;;;;;5.80;2.70;;;;;;;20.75;68.28;96504.50;5049943;28;20492;-78
2022/06/13 09:25:12;;;;;;;5.25;2.47;;;;;;;20.47;67.95;96508.59;5048925;28;20057;-81
2022/06/13 09:27:44;;;;;;;7.25;3.30;;;;;;;20.91;71.19;96507.03;5034538;28;20199;-80
2022/06/13 09:30:16;;;;;;;8.05;2.72;;;;;;;21.03;68.08;96504.75;5040452;28;20050;-80
2022/06/13 09:32:48;;;;;;;5.97;2.40;;;;;;;21.43;69.06;96502.34;5032398;28;20545;-79
2022/06/13 09:37:48;;;;;;;5.07;2.40;;;;;;;21.59;63.37;96506.41;5425736;22;20056;-85
2022/06/13 09:40:16;;;;;;;4.75;2.35;;;;;;;21.43;61.39;96500.38;5051201;28;20124;-77
2022/06/13 09:42:53;;;;;;;7.07;2.40;;;;;;;21.02;64.75;96502.38;5065676;28;20060;-82
2022/06/13 09:45:35;;;;;;;8.35;2.35;;;;;;;21.33;64.71;96512.97;5062847;28;20040;-81
2022/06/13 09:48:11;;;;;;;5.70;2.08;;;;;;;21.37;58.40;96513.00;5065418;28;20045;-81
2022/06/13 09:50:44;;;;;;;4.47;2.13;;;;;;;21.23;61.20;96515.63;5066616;28;20540;-80
2022/06/13 09:53:16;;;;;;;5.88;1.80;;;;;;;21.53;58.04;96515.47;5067205;28;20041;-80
2022/06/13 09:55:51;;;;;;;7.72;2.05;;;;;;;21.63;62.64;96514.75;5066369;28;20060;-81
2022/06/13 09:58:30;;;;;;;6.53;2.10;;;;;;;21.72;55.19;96520.75;5063518;28;20053;-80
2022/06/13 10:01:10;;;;;;;4.55;1.70;;;;;;;21.19;54.30;96514.78;5065900;28;20172;-83
2022/06/13 10:03:48;;;;;;;6.15;1.73;;;;;;;21.18;57.92;96524.28;5064429;28;20072;-82
2022/06/13 10:06:22;;;;;;;4.53;2.10;;;;;;;21.19;60.40;96517.56;5061171;28;20044;-79
2022/06/13 10:08:59;;;;;;;9.55;2.30;;;;;;;20.76;58.75;96519.94;5066533;28;20049;-82
2022/06/13 10:11:42;;;;;;;5.65;1.90;;;;;;;21.38;57.99;96525.66;5074779;28;20052;-83
2022/06/13 10:14:16;;;;;;;;;;;;;;;21.71;61.49;96518.34;5046996;28;20057;-84
2022/06/13 10:16:55;;;;;;;4.97;1.73;;;;;;;21.73;55.36;96524.31;5034389;28;19964;-82
2022/06/13 10:19:33;;;;;;;3.38;1.58;;;;;;;21.91;60.82;96519.66;5033271;28;20080;-82
2022/06/13 10:22:08;;;;;;;4.03;1.65;;;;;;;21.80;56.48;96524.34;5081261;22;20522;-79
2022/06/13 10:24:46;;;;;;;4.13;1.67;;;;;;;21.78;57.57;96529.50;5054649;28;20385;-79
2022/06/13 10:27:21;;;;;;;4.60;1.80;;;;;;;21.78;57.74;96518.41;5054177;28;20045;-78
2022/06/13 10:30:11;;;;;;;7.47;2.10;;;;;;;21.62;60.30;96525.03;5055067;28;20473;-80
2022/06/13 10:32:54;;;;;;;5.97;2.47;;;;;;;20.75;57.13;96521.13;5054859;28;20049;-79
2022/06/13 10:35:33;;;;;;;4.20;2.00;;;;;;;21.25;55.81;96527.91;5054454;28;20066;-80
2022/06/13 10:38:16;;;;;;;4.53;1.80;;;;;;;21.59;56.19;96520.25;5056726;28;20059;-79
2022/06/13 10:40:43;;;;;;;5.47;2.22;;;;;;;21.78;58.86;96519.22;5058751;28;20048;-79
2022/06/13 10:43:10;;;;;;;6.32;2.20;;;;;;;21.97;54.92;96523.66;5059744;28;20068;-77
2022/06/13 10:45:39;;;;;;;4.68;2.22;;;;;;;22.18;54.80;96522.19;5053100;28;20530;-78
2022/06/13 10:48:17;;;;;;;7.13;2.25;;;;;;;22.09;52.84;96522.53;5052764;28;20049;-78
2022/06/13 10:50:49;;;;;;;6.38;1.85;;;;;;;22.17;54.32;96520.63;5052655;28;20075;-78
2022/06/13 10:53:20;;;;;;;5.38;1.95;;;;;;;22.12;53.11;96519.78;5051714;28;20548;-77
2022/06/13 10:55:48;;;;;;;6.85;2.03;;;;;;;22.23;52.56;96530.16;5054164;28;20041;-77
2022/06/13 10:58:20;;;;;;;9.57;2.38;;;;;;;22.32;52.97;96527.81;5053333;28;20072;-79
2022/06/13 11:01:11;;;;;;;6.20;2.00;;;;;;;22.60;51.32;96522.38;5053726;28;20675;-78
2022/06/13 11:03:43;;;;;;;6.72;2.28;;;;;;;21.55;53.88;96524.97;5038308;28;20041;-78
2022/06/13 11:06:21;;;;;;;3.95;2.05;;;;;;;21.36;55.77;96539.09;5052809;28;20400;-78
2022/06/13 11:08:58;;;;;;;4.40;1.98;;;;;;;21.29;55.82;96539.00;5054986;28;20424;-76
2022/06/13 11:11:32;;;;;;;8.23;2.38;;;;;;;21.41;55.98;96530.44;5050933;28;20045;-76
2022/06/13 11:13:58;;;;;;;5.70;1.80;;;;;;;21.78;60.51;96527.53;5051778;28;20071;-78
2022/06/13 11:25:02;;;;;;;4.13;1.90;;;;;;;22.59;48.58;96537.41;5052230;28;20052;-78
2022/06/13 11:27:41;;;;;;;4.43;1.90;;;;;;;22.20;50.52;96536.50;5051088;28;20047;-79
2022/06/13 11:30:37;;;;;;;3.22;1.60;;;;;;;22.38;50.52;96526.25;5051664;28;20049;-77
2022/06/13 11:33:06;;;;;;;6.82;2.05;;;;;;;22.45;50.04;96529.06;5052080;28;20083;-78
2022/06/13 11:35:41;;;;;;;7.00;2.38;;;;;;;22.44;47.92;96530.22;5053160;28;20256;-78
2022/06/13 11:38:21;;;;;;;6.55;1.80;;;;;;;22.50;49.54;96523.13;5051791;28;20049;-77
2022/06/13 11:40:59;;;;;;;7.28;2.75;;;;;;;22.31;49.97;96526.22;5052554;28;20044;-78
2022/06/13 11:43:34;;;;;;;7.13;1.65;;;;;;;22.20;47.47;96537.28;5050993;28;20052;-78
2022/06/13 11:46:03;;;;;;;5.72;1.60;;;;;;;21.92;47.83;96532.34;5057117;28;20052;-79
2022/06/13 11:48:30;;;;;;;9.10;2.15;;;;;;;22.16;48.79;96538.44;5051530;28;20033;-77
2022/06/13 11:51:01;;;;;;;7.47;1.90;;;;;;;22.18;49.00;96530.53;5051051;28;20040;-78
2022/06/13 11:53:37;;;;;;;5.22;1.52;;;;;;;22.19;46.39;96530.16;5050774;28;20051;-80
2022/06/13 11:56:08;;;;;;;2.85;1.27;;;;;;;22.27;43.47;96533.72;5050754;28;20045;-77
2022/06/13 11:58:37;;;;;;;5.10;1.60;;;;;;;22.14;46.98;96531.31;5051804;28;20071;-78
2022/06/13 12:01:16;;;;;;;4.65;1.70;;;;;;;22.04;42.13;96534.81;5051218;28;20099;-78
2022/06/13 12:03:47;;;;;;;4.03;1.40;;;;;;;22.12;43.97;96536.44;5051481;28;20045;-77
2022/06/13 12:06:18;;;;;;;6.72;1.50;;;;;;;22.25;45.42;96533.34;5051277;28;20048;-77
2022/06/13 12:08:49;;;;;;;5.28;1.73;;;;;;;21.92;48.27;96526.78;5051373;28;20052;-78
2022/06/13 12:11:23;;;;;;;5.35;1.90;;;;;;;22.14;45.07;96539.63;5050116;28;20048;-77